Time;durP1;ratioP1;P1;durP2;ratioP2;P2;SDS_P1;SDS_P2;PMS_P1;PMS_P2;Temp;Humidity;BMP_temperature;BMP_pressure;BME280_temperature;BME280_humidity;BME280_pressure;Samples;Min_cycle;Max_cycle;Signal;HPM_P1;HPM_P2
2021/12/02 00:02:08;;;;;;;;;;;;;;;5.07;69.41;98348.75;6313778;22;1362;-94
2021/12/02 00:04:36;;;;;;;;;;;;;;;5.08;69.42;98361.03;6310952;22;1948;-95
2021/12/02 00:07:04;;;;;;;;;;;;;;;5.06;69.51;98370.31;6313899;22;1375;-95
2021/12/02 00:09:31;;;;;;;;;;;;;;;5.03;69.69;98370.78;6316747;22;1271;-94
2021/12/02 00:11:57;;;;;;;;;;;;;;;5.05;69.55;98372.19;6314879;22;1275;-94
2021/12/02 00:14:26;;;;;;;;;;;;;;;5.08;69.56;98370.91;6318964;22;1400;-94
2021/12/02 00:17:04;;;;;;;;;;;;;;;5.07;69.48;98375.44;6312815;22;1201;-96
2021/12/02 00:22:15;;;;;;;;;;;;;;;5.04;69.67;98375.09;6310910;22;1384;-94
2021/12/02 00:24:41;;;;;;;;;;;;;;;5.05;69.67;98379.38;6311791;22;1920;-94
2021/12/02 00:27:08;;;;;;;;;;;;;;;5.03;69.49;98374.28;6311395;22;1325;-95
2021/12/02 00:29:35;;;;;;;;;;;;;;;4.99;69.66;98376.59;6311562;22;1287;-95
2021/12/02 00:32:01;;;;;;;;;;;;;;;5.01;69.61;98369.19;6311923;22;1187;-95
2021/12/02 00:34:28;;;;;;;;;;;;;;;5.03;69.58;98371.63;6311290;22;1173;-95
2021/12/02 00:36:55;;;;;;;;;;;;;;;5.05;69.58;98377.50;6311764;22;1415;-95
2021/12/02 00:39:22;;;;;;;;;;;;;;;5.07;69.28;98385.31;6312418;22;1379;-95
2021/12/02 00:41:49;;;;;;;;;;;;;;;5.07;69.56;98387.97;6312571;22;1330;-96
2021/12/02 00:44:15;;;;;;;;;;;;;;;5.06;69.54;98395.16;6311266;22;1948;-93
2021/12/02 00:46:43;;;;;;;;;;;;;;;5.08;69.55;98395.72;6311029;22;1194;-93
2021/12/02 00:49:11;;;;;;;;;;;;;;;5.08;69.51;98389.56;6313859;22;1274;-93
2021/12/02 00:51:38;;;;;;;;;;;;;;;5.08;69.25;98389.56;6310692;22;1230;-94
2021/12/02 00:54:04;;;;;;;;;;;;;;;5.07;69.39;98394.09;6310378;22;1309;-93
2021/12/02 00:56:31;;;;;;;;;;;;;;;5.07;69.41;98396.78;6310893;22;1235;-93
2021/12/02 00:58:57;;;;;;;;;;;;;;;5.03;69.49;98392.13;6314054;22;1296;-95
2021/12/02 01:01:25;;;;;;;;;;;;;;;5.04;69.58;98399.91;6311670;22;1304;-95
2021/12/02 01:03:51;;;;;;;;;;;;;;;5.04;69.49;98397.25;6312829;22;1904;-95
2021/12/02 01:06:18;;;;;;;;;;;;;;;5.04;69.63;98396.44;6314066;22;1220;-94
2021/12/02 01:08:44;;;;;;;;;;;;;;;5.07;69.45;98398.63;6312392;22;1250;-93
2021/12/02 01:11:12;;;;;;;;;;;;;;;5.04;69.64;98397.25;6311022;22;1158;-96
2021/12/02 01:13:39;;;;;;;;;;;;;;;5.05;69.55;98406.88;6311201;22;1322;-93
2021/12/02 01:16:05;;;;;;;;;;;;;;;5.06;69.48;98410.34;6311541;22;1278;-94
2021/12/02 01:18:32;;;;;;;;;;;;;;;5.05;69.57;98406.88;6313153;22;1176;-94
2021/12/02 01:20:58;;;;;;;;;;;;;;;5.05;69.46;98414.88;6309941;22;1177;-94
2021/12/02 01:23:27;;;;;;;;;;;;;;;5.04;69.46;98409.78;6313360;22;1186;-94
2021/12/02 01:25:54;;;;;;;;;;;;;;;5.05;69.60;98404.19;6310212;22;1893;-94
2021/12/02 01:28:21;;;;;;;;;;;;;;;5.07;69.62;98395.97;6313139;22;1237;-96
2021/12/02 01:30:47;;;;;;;;;;;;;;;5.06;69.39;98403.16;6312156;22;1220;-94
2021/12/02 01:33:14;;;;;;;;;;;;;;;5.07;69.35;98402.13;6313322;22;1316;-96
2021/12/02 01:35:40;;;;;;;;;;;;;;;5.03;69.71;98398.31;6313412;22;1445;-95
2021/12/02 01:38:07;;;;;;;;;;;;;;;5.03;69.41;98402.81;6314854;22;1260;-95
2021/12/02 01:40:33;;;;;;;;;;;;;;;5.03;69.57;98406.31;6313395;22;1688;-94
2021/12/02 01:43:00;;;;;;;;;;;;;;;5.04;69.73;98407.91;6312788;22;1269;-94
2021/12/02 01:45:27;;;;;;;;;;;;;;;5.02;69.55;98404.66;6313082;22;1914;-95
2021/12/02 01:47:54;;;;;;;;;;;;;;;5.03;69.71;98408.16;6313353;22;1209;-95
2021/12/02 01:50:22;;;;;;;;;;;;;;;5.01;69.60;98408.41;6308590;22;1276;-94
2021/12/02 01:52:50;;;;;;;;;;;;;;;5.05;69.41;98412.19;6312652;22;1288;-95
2021/12/02 01:55:16;;;;;;;;;;;;;;;5.08;69.44;98413.59;6312268;22;1370;-94
2021/12/02 01:57:43;;;;;;;;;;;;;;;5.04;69.45;98423.13;6309846;22;1147;-94
2021/12/02 02:00:10;;;;;;;;;;;;;;;5.07;69.43;98417.31;6312484;22;1312;-93
2021/12/02 02:02:37;;;;;;;;;;;;;;;5.05;69.45;98428.22;6312768;22;1170;-94
2021/12/02 02:05:07;;;;;;;;;;;;;;;5.06;69.43;98429.00;6310237;22;1908;-95
2021/12/02 02:07:34;;;;;;;;;;;;;;;5.03;69.50;98421.47;6310114;22;1210;-94
2021/12/02 02:10:01;;;;;;;;;;;;;;;5.05;69.48;98424.75;6310915;22;1256;-94
2021/12/02 02:12:28;;;;;;;;;;;;;;;5.04;69.52;98428.47;6312910;22;1299;-96
2021/12/02 02:14:54;;;;;;;;;;;;;;;5.06;69.34;98432.53;6315197;22;1359;-93
2021/12/02 02:17:25;;;;;;;;;;;;;;;5.04;69.58;98436.47;6315370;22;1279;-95
2021/12/02 02:19:52;;;;;;;;;;;;;;;5.03;69.54;98427.66;6309118;22;1332;-94
2021/12/02 02:22:22;;;;;;;;;;;;;;;5.02;69.54;98426.00;6309899;22;1374;-94
2021/12/02 02:24:52;;;;;;;;;;;;;;;5.04;69.40;98423.13;6310139;22;1955;-95
2021/12/02 02:27:19;;;;;;;;;;;;;;;5.04;69.47;98423.13;6310038;22;1226;-95
2021/12/02 02:29:46;;;;;;;;;;;;;;;5.05;69.50;98414.06;6309056;22;1481;-95
2021/12/02 02:32:13;;;;;;;;;;;;;;;5.04;69.35;98418.59;6310743;22;1175;-95
2021/12/02 02:34:39;;;;;;;;;;;;;;;5.00;69.45;98420.13;6309683;22;1307;-95
2021/12/02 02:37:07;;;;;;;;;;;;;;;5.01;69.64;98413.72;6310519;22;1263;-95
2021/12/02 02:39:35;;;;;;;;;;;;;;;5.03;69.51;98418.81;6309935;22;1464;-95
2021/12/02 02:42:04;;;;;;;;;;;;;;;5.05;69.46;98420.22;6310390;22;1241;-96
2021/12/02 02:44:31;;;;;;;;;;;;;;;5.07;69.32;98425.31;6310282;22;1949;-94
2021/12/02 02:46:57;;;;;;;;;;;;;;;5.10;69.25;98419.50;6310940;22;1200;-94
2021/12/02 02:49:24;;;;;;;;;;;;;;;5.08;69.30;98410.94;6308971;22;1233;-94
2021/12/02 02:51:51;;;;;;;;;;;;;;;5.08;69.25;98413.59;6310653;22;1278;-95
2021/12/02 02:54:17;;;;;;;;;;;;;;;5.09;68.84;98431.22;6310434;22;1283;-94
2021/12/02 02:56:48;;;;;;;;;;;;;;;5.06;69.27;98431.69;6310545;22;1280;-94
2021/12/02 02:59:22;;;;;;;;;;;;;;;5.06;69.44;98427.19;6309948;22;1440;-96
2021/12/02 03:01:59;;;;;;;;;;;;;;;5.06;69.15;98439.69;6310582;22;1337;-93
2021/12/02 03:04:31;;;;;;;;;;;;;;;5.03;69.30;98440.16;6309169;22;1897;-93
2021/12/02 03:07:02;;;;;;;;;;;;;;;5.04;69.40;98442.59;6311336;22;1201;-95
2021/12/02 03:09:47;;;;;;;;;;;;;;;5.04;69.24;98439.13;6310502;22;1395;-93
2021/12/02 03:12:17;;;;;;;;;;;;;;;5.04;69.27;98445.28;6309650;22;1466;-93
2021/12/02 03:16:37;;;;;;;;;;;;;;;5.03;69.32;98446.34;6310018;22;1447;-95
2021/12/02 03:17:40;;;;;;;;;;;;;;;4.98;69.55;98441.69;6310661;22;1384;-93
2021/12/02 03:20:07;;;;;;;;;;;;;;;5.00;69.41;98444.13;6311757;22;1328;-96
2021/12/02 03:22:33;;;;;;;;;;;;;;;5.00;69.35;98450.28;6310218;22;1157;-94
2021/12/02 03:25:00;;;;;;;;;;;;;;;4.98;69.41;98454.22;6311338;22;1952;-95
2021/12/02 03:27:26;;;;;;;;;;;;;;;5.01;69.45;98459.09;6310446;22;1356;-93
2021/12/02 03:29:53;;;;;;;;;;;;;;;5.01;69.40;98453.75;6310049;22;1149;-94
2021/12/02 03:32:19;;;;;;;;;;;;;;;5.01;69.40;98453.75;6312182;22;1114;-94
2021/12/02 03:34:46;;;;;;;;;;;;;;;4.99;69.48;98450.50;6310058;22;1523;-94
2021/12/02 03:37:13;;;;;;;;;;;;;;;5.00;69.33;98457.47;6310168;22;1150;-94
2021/12/02 03:39:40;;;;;;;;;;;;;;;5.01;69.25;98472.44;6310645;22;1378;-92
2021/12/02 03:42:06;;;;;;;;;;;;;;;4.97;69.47;98472.09;6311539;22;1166;-94
2021/12/02 03:44:33;;;;;;;;;;;;;;;4.96;69.40;98472.31;6313147;22;1957;-95
2021/12/02 03:47:00;;;;;;;;;;;;;;;4.94;69.72;98472.56;6310892;22;1297;-93
2021/12/02 03:49:26;;;;;;;;;;;;;;;4.97;69.26;98479.25;6311192;22;1285;-95
2021/12/02 03:51:53;;;;;;;;;;;;;;;4.96;69.48;98474.97;6311422;22;1480;-94
2021/12/02 03:54:20;;;;;;;;;;;;;;;4.98;69.45;98475.56;6309338;22;1340;-94
2021/12/02 03:56:47;;;;;;;;;;;;;;;4.99;69.28;98477.97;6309729;22;1407;-93
2021/12/02 03:59:14;;;;;;;;;;;;;;;4.99;69.28;98479.84;6309958;22;1333;-94
2021/12/02 04:01:41;;;;;;;;;;;;;;;4.98;69.31;98484.38;6311561;22;1193;-94
2021/12/02 04:04:08;;;;;;;;;;;;;;;4.96;69.45;98488.31;6308537;22;1113;-95
2021/12/02 04:06:35;;;;;;;;;;;;;;;4.96;69.19;98491.78;6312051;22;1904;-95
2021/12/02 04:09:04;;;;;;;;;;;;;;;4.98;69.39;98480.91;6311086;22;1323;-95
2021/12/02 04:11:34;;;;;;;;;;;;;;;4.98;69.23;98479.03;6311065;22;1300;-94
2021/12/02 04:14:07;;;;;;;;;;;;;;;4.96;69.36;98474.97;6310716;22;1241;-94
2021/12/02 04:16:35;;;;;;;;;;;;;;;4.94;69.34;98475.22;6312937;22;1217;-95
2021/12/02 04:19:02;;;;;;;;;;;;;;;4.98;69.29;98479.03;6314076;22;1155;-95
2021/12/02 04:21:29;;;;;;;;;;;;;;;4.95;69.33;98479.50;6311566;22;1181;-93
2021/12/02 04:23:55;;;;;;;;;;;;;;;4.94;69.48;98487.72;6309053;22;1174;-96
2021/12/02 04:26:22;;;;;;;;;;;;;;;5.00;69.27;98481.50;6308247;22;1896;-93
2021/12/02 04:28:49;;;;;;;;;;;;;;;4.98;69.25;98489.72;6310774;22;1419;-96
2021/12/02 04:31:15;;;;;;;;;;;;;;;5.01;69.29;98483.09;6310912;22;1298;-95
2021/12/02 04:33:42;;;;;;;;;;;;;;;5.01;69.24;98486.56;6311634;22;1222;-95
2021/12/02 04:36:09;;;;;;;;;;;;;;;5.04;69.05;98487.16;6310341;22;1351;-95
2021/12/02 04:38:35;;;;;;;;;;;;;;;5.00;69.30;98482.28;6311647;22;1311;-95
2021/12/02 04:41:02;;;;;;;;;;;;;;;4.94;69.38;98485.06;6309694;22;1146;-93
2021/12/02 04:43:28;;;;;;;;;;;;;;;4.95;69.46;98492.03;6310798;22;1151;-92
2021/12/02 04:45:55;;;;;;;;;;;;;;;4.93;69.34;98494.94;6310880;22;1951;-93
2021/12/02 04:48:21;;;;;;;;;;;;;;;4.98;69.39;98492.38;6312041;22;1303;-93
2021/12/02 04:50:48;;;;;;;;;;;;;;;4.97;69.08;98488.09;6309216;22;1411;-96
2021/12/02 04:53:15;;;;;;;;;;;;;;;4.91;69.24;98483.69;6311071;22;1342;-95
2021/12/02 04:55:41;;;;;;;;;;;;;;;4.93;69.30;98502.13;6311244;22;1467;-93
2021/12/02 04:58:08;;;;;;;;;;;;;;;4.96;69.33;98504.31;6311949;22;1273;-93
2021/12/02 05:00:34;;;;;;;;;;;;;;;4.96;69.23;98501.66;6311642;22;1261;-95
2021/12/02 05:03:01;;;;;;;;;;;;;;;4.99;68.96;98504.66;6313460;22;1208;-95
2021/12/02 05:05:28;;;;;;;;;;;;;;;5.01;69.07;98499.09;6312053;22;1947;-94
2021/12/02 05:07:55;;;;;;;;;;;;;;;4.98;69.10;98505.72;6312643;22;1178;-95
2021/12/02 05:10:22;;;;;;;;;;;;;;;4.95;69.17;98505.38;6311941;22;1213;-93
2021/12/02 05:12:48;;;;;;;;;;;;;;;4.94;69.25;98501.91;6311826;22;1149;-93
2021/12/02 05:15:15;;;;;;;;;;;;;;;4.98;69.00;98504.91;6311385;22;1136;-93
2021/12/02 05:17:41;;;;;;;;;;;;;;;4.98;69.06;98510.25;6311562;22;1320;-95
2021/12/02 05:20:08;;;;;;;;;;;;;;;5.01;68.95;98513.25;6312066;22;1236;-95
2021/12/02 05:22:35;;;;;;;;;;;;;;;4.95;69.13;98513.38;6312403;22;1174;-95
2021/12/02 05:25:01;;;;;;;;;;;;;;;4.93;69.17;98512.78;6311482;22;1951;-94
2021/12/02 05:27:28;;;;;;;;;;;;;;;4.89;69.38;98503.66;6312463;22;1336;-93
2021/12/02 05:29:55;;;;;;;;;;;;;;;4.90;69.19;98498.06;6311888;22;1275;-93
2021/12/02 05:32:21;;;;;;;;;;;;;;;4.93;69.24;98502.94;6311544;22;1182;-94
2021/12/02 05:34:49;;;;;;;;;;;;;;;4.94;69.04;98511.75;6310725;22;1303;-94
2021/12/02 05:37:16;;;;;;;;;;;;;;;4.92;69.28;98514.66;6311738;22;1232;-93
2021/12/02 05:39:42;;;;;;;;;;;;;;;4.89;69.41;98511.66;6310151;22;1229;-95
2021/12/02 05:42:09;;;;;;;;;;;;;;;4.91;69.19;98523.72;6312296;22;1142;-94
2021/12/02 05:44:35;;;;;;;;;;;;;;;4.90;69.30;98518.59;6309797;22;1353;-93
2021/12/02 05:47:02;;;;;;;;;;;;;;;4.95;68.95;98516.03;6312255;22;1904;-95
2021/12/02 05:49:28;;;;;;;;;;;;;;;4.99;68.84;98509.19;6311112;22;1325;-93
2021/12/02 05:51:55;;;;;;;;;;;;;;;4.95;69.03;98516.84;6309980;22;1459;-94
2021/12/02 05:54:21;;;;;;;;;;;;;;;4.92;69.20;98517.31;6313093;22;1336;-96
2021/12/02 05:56:48;;;;;;;;;;;;;;;4.91;69.00;98512.19;6312426;22;1363;-95
2021/12/02 05:59:14;;;;;;;;;;;;;;;4.89;69.38;98515.13;6312197;22;1279;-94
2021/12/02 06:01:42;;;;;;;;;;;;;;;4.89;69.27;98516.97;6311134;22;1219;-93
2021/12/02 06:04:09;;;;;;;;;;;;;;;4.90;69.26;98518.59;6311207;22;1185;-94
2021/12/02 06:06:36;;;;;;;;;;;;;;;4.90;69.35;98519.41;6310088;22;1905;-95
2021/12/02 06:09:02;;;;;;;;;;;;;;;4.87;69.33;98530.53;6312341;22;1229;-93
2021/12/02 06:11:29;;;;;;;;;;;;;;;4.92;69.04;98528.00;6313036;22;1169;-95
2021/12/02 06:13:56;;;;;;;;;;;;;;;4.87;69.22;98527.06;6311085;22;1222;-93
2021/12/02 06:16:22;;;;;;;;;;;;;;;4.88;69.31;98528.69;6310986;22;1287;-92
2021/12/02 06:18:49;;;;;;;;;;;;;;;4.87;69.15;98530.53;6311630;22;1259;-94
2021/12/02 06:21:15;;;;;;;;;;;;;;;4.91;69.05;98534.38;6311329;22;1344;-94
2021/12/02 06:23:42;;;;;;;;;;;;;;;4.92;69.01;98533.31;6314336;22;1328;-93
2021/12/02 06:26:09;;;;;;;;;;;;;;;4.94;68.79;98536.59;6310060;22;1908;-95
2021/12/02 06:28:36;;;;;;;;;;;;;;;4.94;69.11;98538.41;6310051;22;1195;-93
2021/12/02 06:31:06;;;;;;;;;;;;;;;4.93;68.94;98539.47;6309678;22;1167;-94
2021/12/02 06:33:32;;;;;;;;;;;;;;;4.91;68.99;98547.72;6310542;22;1249;-94
2021/12/02 06:35:59;;;;;;;;;;;;;;;4.91;69.01;98547.72;6308966;22;1322;-94
2021/12/02 06:38:25;;;;;;;;;;;;;;;4.87;69.07;98548.41;6310215;22;1150;-94
2021/12/02 06:40:52;;;;;;;;;;;;;;;4.88;69.18;98550.84;6308767;22;1293;-94
2021/12/02 06:43:18;;;;;;;;;;;;;;;4.88;69.06;98553.53;6310365;22;1162;-94
2021/12/02 06:45:45;;;;;;;;;;;;;;;4.88;69.02;98564.19;6310231;22;1946;-93
2021/12/02 06:48:12;;;;;;;;;;;;;;;4.89;69.10;98567.66;6311060;22;1200;-95
2021/12/02 06:50:38;;;;;;;;;;;;;;;4.87;69.26;98559.88;6310050;22;1303;-93
2021/12/02 06:53:05;;;;;;;;;;;;;;;4.88;68.96;98563.34;6310628;22;1245;-95
2021/12/02 06:55:31;;;;;;;;;;;;;;;4.87;68.98;98567.06;6309315;22;1295;-93
2021/12/02 06:57:58;;;;;;;;;;;;;;;4.86;69.20;98573.47;6310682;22;1274;-94
2021/12/02 07:00:24;;;;;;;;;;;;;;;4.87;69.22;98578.56;6311100;22;1343;-93
2021/12/02 07:02:52;;;;;;;;;;;;;;;4.89;69.03;98573.00;6311610;22;1193;-93
2021/12/02 07:05:18;;;;;;;;;;;;;;;4.87;69.02;98561.75;6310340;22;1896;-95
2021/12/02 07:07:45;;;;;;;;;;;;;;;4.87;68.97;98578.56;6312557;22;1233;-94
2021/12/02 07:10:12;;;;;;;;;;;;;;;4.88;69.04;98574.88;6309764;22;1339;-93
2021/12/02 07:12:40;;;;;;;;;;;;;;;4.88;68.85;98569.53;6309824;22;1186;-94
2021/12/02 07:15:10;;;;;;;;;;;;;;;4.85;68.97;98574.47;6311024;22;1190;-95
2021/12/02 07:17:37;;;;;;;;;;;;;;;4.83;69.09;98565.91;6311053;22;1230;-95
2021/12/02 07:20:04;;;;;;;;;;;;;;;4.83;68.98;98565.91;6309473;22;1270;-94
2021/12/02 07:22:30;;;;;;;;;;;;;;;4.84;69.00;98565.69;6311429;22;1272;-95
2021/12/02 07:24:57;;;;;;;;;;;;;;;4.85;68.95;98572.63;6310712;22;1266;-95
2021/12/02 07:27:24;;;;;;;;;;;;;;;4.84;68.98;98567.53;6311590;22;1958;-95
2021/12/02 07:29:50;;;;;;;;;;;;;;;4.82;69.15;98562.41;6310562;22;1296;-95
2021/12/02 07:32:17;;;;;;;;;;;;;;;4.85;68.92;98558.47;6312139;22;1218;-93
2021/12/02 07:34:44;;;;;;;;;;;;;;;4.84;69.11;98552.34;6309917;22;1169;-94
2021/12/02 07:37:10;;;;;;;;;;;;;;;4.81;68.94;98562.66;6312107;22;1225;-93
2021/12/02 07:39:37;;;;;;;;;;;;;;;4.79;69.11;98568.22;6309969;22;1205;-95
2021/12/02 07:42:05;;;;;;;;;;;;;;;4.86;69.03;98570.78;6311468;22;1237;-93
2021/12/02 07:44:32;;;;;;;;;;;;;;;4.88;68.70;98582.88;6310502;22;1280;-95
2021/12/02 07:46:59;;;;;;;;;;;;;;;4.80;68.95;98577.84;6311650;22;1951;-94
2021/12/02 07:49:26;;;;;;;;;;;;;;;4.82;69.08;98578.41;6310223;22;1178;-94
2021/12/02 07:51:52;;;;;;;;;;;;;;;4.84;68.79;98584.34;6312708;22;1221;-93
2021/12/02 07:54:19;;;;;;;;;;;;;;;4.81;68.93;98586.66;6311173;22;1262;-93
2021/12/02 07:56:45;;;;;;;;;;;;;;;4.81;68.92;98584.81;6310469;22;1361;-93
2021/12/02 07:59:14;;;;;;;;;;;;;;;4.83;69.07;98579.25;6311804;22;1339;-94
2021/12/02 08:01:40;;;;;;;;;;;;;;;4.80;68.95;98585.84;6310996;22;1523;-94
2021/12/02 08:04:07;;;;;;;;;;;;;;;4.81;68.74;98582.16;6311305;22;1162;-95
2021/12/02 08:06:34;;;;;;;;;;;;;;;4.79;68.93;98578.88;6313462;22;1884;-93
2021/12/02 08:09:00;;;;;;;;;;;;;;;4.81;68.92;98586.66;6313294;22;1209;-95
2021/12/02 08:11:27;;;;;;;;;;;;;;;4.81;68.92;98592.81;6313952;22;1330;-93
2021/12/02 08:13:56;;;;;;;;;;;;;;;4.78;69.06;98593.28;6315022;22;1467;-95
2021/12/02 08:16:22;;;;;;;;;;;;;;;4.80;69.03;98590.38;6315369;22;1344;-94
2021/12/02 08:18:49;;;;;;;;;;;;;;;4.81;68.95;98592.00;6315340;22;1310;-94
2021/12/02 08:21:16;;;;;;;;;;;;;;;4.78;68.96;98590.59;6311713;22;1303;-95
2021/12/02 08:23:42;;;;;;;;;;;;;;;4.77;69.07;98599.66;6313418;22;1182;-95
2021/12/02 08:26:12;;;;;;;;;;;;;;;4.80;68.83;98601.06;6318678;22;1924;-96
2021/12/02 08:28:42;;;;;;;;;;;;;;;4.79;68.82;98600.22;6315924;22;849;-95
2021/12/02 08:31:09;;;;;;;;;;;;;;;4.77;69.01;98602.31;6309979;22;1248;-95
2021/12/02 08:33:36;;;;;;;;;;;;;;;4.76;68.89;98601.53;6312761;22;1170;-95
2021/12/02 08:36:03;;;;;;;;;;;;;;;4.78;69.01;98598.59;6311618;22;1309;-94
2021/12/02 08:38:32;;;;;;;;;;;;;;;4.79;68.85;98610.88;6308364;22;1329;-95
2021/12/02 08:40:59;;;;;;;;;;;;;;;4.77;68.97;98597.78;6310528;22;1323;-94
2021/12/02 08:43:26;;;;;;;;;;;;;;;4.74;69.04;98600.94;6311517;22;1358;-94
2021/12/02 08:45:53;;;;;;;;;;;;;;;4.76;68.98;98603.34;6313708;22;1948;-94
2021/12/02 08:48:19;;;;;;;;;;;;;;;4.77;69.04;98599.66;6315968;22;1188;-92
2021/12/02 08:50:47;;;;;;;;;;;;;;;4.77;68.97;98594.31;6313797;22;1356;-94
2021/12/02 08:53:14;;;;;;;;;;;;;;;4.74;69.04;98598.25;6314721;22;1480;-96
2021/12/02 08:55:40;;;;;;;;;;;;;;;4.77;68.85;98594.31;6312282;22;1271;-96
2021/12/02 08:58:09;;;;;;;;;;;;;;;4.76;68.91;98587.34;6312703;22;1447;-94
2021/12/02 09:00:36;;;;;;;;;;;;;;;4.75;68.82;98596.41;6314177;22;1154;-95
2021/12/02 09:03:03;;;;;;;;;;;;;;;4.77;68.76;98602.31;6313879;22;1284;-96
2021/12/02 09:05:29;;;;;;;;;;;;;;;4.75;68.84;98605.22;6315468;22;1422;-96
2021/12/02 09:07:56;;;;;;;;;;;;;;;4.79;68.70;98605.56;6313072;22;1896;-95
2021/12/02 09:10:25;;;;;;;;;;;;;;;4.75;68.92;98599.06;6314819;22;1296;-95
2021/12/02 09:12:55;;;;;;;;;;;;;;;4.73;68.87;98604.63;6315975;22;1170;-96
2021/12/02 09:15:22;;;;;;;;;;;;;;;4.71;69.07;98606.72;6289445;22;1327;-95
2021/12/02 09:17:49;;;;;;;;;;;;;;;4.71;68.99;98608.56;6318681;22;1241;-96
2021/12/02 09:20:16;;;;;;;;;;;;;;;4.71;69.13;98613.91;6318515;22;1236;-96
2021/12/02 09:22:46;;;;;;;;;;;;;;;4.73;68.89;98606.47;6316960;22;1432;-94
2021/12/02 09:25:16;;;;;;;;;;;;;;;4.76;68.80;98614.84;6320874;22;1257;-94
2021/12/02 09:27:45;;;;;;;;;;;;;;;4.74;68.76;98608.13;6323985;22;1947;-96
2021/12/02 09:38:26;;;;;;;;;;;;;;;4.71;68.79;98595.25;6322149;22;1205;-94
2021/12/02 09:40:54;;;;;;;;;;;;;;;4.71;68.93;98596.06;6325632;22;1386;-96
2021/12/02 10:03:38;;;;;;;;;;;;;;;4.76;68.67;98588.19;6295731;22;940;-94
2021/12/02 10:09:02;;;;;;;;;;;;;;;4.77;68.64;98597.00;6268653;22;1354;-94
2021/12/02 10:11:41;;;;;;;;;;;;;;;4.78;68.75;98598.59;6269893;22;1576;-94
2021/12/02 10:14:08;;;;;;;;;;;;;;;4.78;68.63;98596.75;6292621;22;1133;-95
2021/12/02 10:19:23;;;;;;;;;;;;;;;4.79;68.73;98586.88;6265614;22;1245;-95
2021/12/02 10:22:00;;;;;;;;;;;;;;;4.82;68.60;98588.28;6294070;22;857;-95
2021/12/02 10:24:28;;;;;;;;;;;;;;;4.75;68.71;98586.53;6291997;22;1244;-93
2021/12/02 10:26:56;;;;;;;;;;;;;;;4.82;68.71;98582.94;6299539;22;1929;-95
2021/12/02 10:32:05;;;;;;;;;;;;;;;4.82;68.65;98583.75;6261790;22;1223;-95
2021/12/02 10:34:32;;;;;;;;;;;;;;;4.83;68.60;98593.41;6260725;22;1270;-95
2021/12/02 10:36:59;;;;;;;;;;;;;;;4.81;68.71;98584.00;6286728;22;1405;-95
2021/12/02 10:39:38;;;;;;;;;;;;;;;4.82;68.71;98586.41;6262267;22;1630;-95
2021/12/02 11:46:27;;;;;;;;;;;;;;;5.03;68.91;98571.75;6269038;22;1942;-96
2021/12/02 11:48:54;;;;;;;;;;;;;;;5.07;68.88;98577.41;6273510;22;1190;-96
2021/12/02 11:51:23;;;;;;;;;;;;;;;5.07;68.98;98582.75;6296280;22;848;-96
2021/12/02 11:53:54;;;;;;;;;;;;;;;5.06;68.94;98575.78;6261991;22;1155;-96
2021/12/02 11:56:20;;;;;;;;;;;;;;;5.10;68.86;98577.75;6267279;22;1398;-96
2021/12/02 11:58:47;;;;;;;;;;;;;;;5.08;69.19;98584.38;6266286;22;1265;-96
2021/12/02 12:01:14;;;;;;;;;;;;;;;5.07;69.13;98580.09;6264905;22;1218;-96
2021/12/02 12:03:41;;;;;;;;;;;;;;;5.08;68.97;98577.16;6290790;22;1262;-96
2021/12/02 12:06:08;;;;;;;;;;;;;;;5.08;69.34;98573.69;6264874;22;1901;-96
2021/12/02 12:08:35;;;;;;;;;;;;;;;5.12;69.14;98581.00;6267190;22;1440;-96
2021/12/02 12:11:02;;;;;;;;;;;;;;;5.14;69.00;98578.91;6266737;22;1265;-96
2021/12/02 12:13:30;;;;;;;;;;;;;;;5.13;69.12;98584.50;6292988;22;900;-96
2021/12/02 12:15:58;;;;;;;;;;;;;;;5.15;68.94;98580.56;6267282;22;1397;-96
2021/12/02 12:18:26;;;;;;;;;;;;;;;5.15;69.13;98587.75;6266457;22;1237;-96
2021/12/02 12:20:54;;;;;;;;;;;;;;;5.16;68.95;98595.50;6291078;22;934;-96
2021/12/02 12:23:22;;;;;;;;;;;;;;;5.15;69.27;98580.56;6290965;22;1572;-96
2021/12/02 12:25:48;;;;;;;;;;;;;;;5.17;69.09;98590.97;6264618;22;1324;-96
2021/12/02 12:28:15;;;;;;;;;;;;;;;5.16;69.22;98592.03;6292237;22;1914;-96
2021/12/02 12:30:43;;;;;;;;;;;;;;;5.20;69.05;98585.97;6289423;22;1313;-96
2021/12/02 12:33:19;;;;;;;;;;;;;;;5.22;69.27;98585.75;6260518;22;1321;-96
2021/12/02 12:36:00;;;;;;;;;;;;;;;5.20;69.14;98577.16;6286409;22;1346;-96
2021/12/02 12:38:28;;;;;;;;;;;;;;;5.20;69.11;98577.97;6284749;22;1242;-96
2021/12/02 12:40:56;;;;;;;;;;;;;;;5.21;69.16;98584.94;6287144;22;1353;-96
2021/12/02 12:43:23;;;;;;;;;;;;;;;5.24;69.27;98579.16;6285987;22;1186;-96
2021/12/02 12:45:50;;;;;;;;;;;;;;;5.27;69.04;98566.38;6286912;22;1269;-96
2021/12/02 12:48:18;;;;;;;;;;;;;;;5.23;69.13;98566.84;6284759;22;1904;-96
2021/12/02 12:50:45;;;;;;;;;;;;;;;5.28;69.10;98571.47;6285385;22;1271;-96
2021/12/02 12:53:15;;;;;;;;;;;;;;;5.28;69.03;98568.81;6285261;22;1211;-96
2021/12/02 12:55:49;;;;;;;;;;;;;;;5.29;69.17;98574.97;6284216;22;1369;-96
2021/12/02 12:58:18;;;;;;;;;;;;;;;5.26;69.20;98570.91;6284076;22;1425;-96
2021/12/02 13:00:45;;;;;;;;;;;;;;;5.27;69.41;98572.53;6283188;22;1362;-96
2021/12/02 13:03:14;;;;;;;;;;;;;;;5.29;69.40;98577.63;6283155;22;1416;-96
2021/12/02 13:05:40;;;;;;;;;;;;;;;5.29;69.21;98577.63;6282416;22;1265;-96
2021/12/02 13:08:07;;;;;;;;;;;;;;;5.29;69.40;98578.44;6281888;22;1900;-96
2021/12/02 13:10:33;;;;;;;;;;;;;;;5.26;69.39;98573.56;6281243;22;1197;-96
2021/12/02 13:13:00;;;;;;;;;;;;;;;5.27;69.39;98577.06;6280966;22;1257;-96
2021/12/02 13:15:27;;;;;;;;;;;;;;;5.30;69.34;98579.28;6255505;22;1316;-96
2021/12/02 13:17:54;;;;;;;;;;;;;;;5.31;69.37;98579.03;6280251;22;1407;-95
2021/12/02 13:20:20;;;;;;;;;;;;;;;5.33;69.15;98576.13;6279998;22;1207;-96
2021/12/02 13:22:47;;;;;;;;;;;;;;;5.34;69.31;98573.22;6280173;22;1470;-96
2021/12/02 13:25:13;;;;;;;;;;;;;;;5.33;69.29;98573.47;6278869;22;1321;-96
2021/12/02 13:27:40;;;;;;;;;;;;;;;5.33;69.31;98566.25;6280005;22;1950;-96
2021/12/02 13:30:06;;;;;;;;;;;;;;;5.34;69.36;98570.53;6252572;22;1295;-96
2021/12/02 13:32:33;;;;;;;;;;;;;;;5.37;69.22;98585.28;6279627;22;1183;-96
2021/12/02 13:34:59;;;;;;;;;;;;;;;5.35;69.20;98580.16;6277488;22;1255;-96
2021/12/02 13:37:26;;;;;;;;;;;;;;;5.33;69.42;98584.13;6279422;22;1169;-96
2021/12/02 13:39:53;;;;;;;;;;;;;;;5.31;69.49;98584.34;6278976;22;1308;-96
2021/12/02 13:42:20;;;;;;;;;;;;;;;5.36;69.43;98583.69;6253799;22;1374;-95
2021/12/02 13:44:48;;;;;;;;;;;;;;;5.36;69.38;98584.47;6278264;22;1230;-96
2021/12/02 13:47:17;;;;;;;;;;;;;;;5.36;69.45;98583.69;6279589;22;1905;-96
2021/12/02 13:49:46;;;;;;;;;;;;;;;5.35;69.68;98590.84;6250948;22;1179;-95
2021/12/02 13:52:22;;;;;;;;;;;;;;;5.37;69.34;98591.44;6253235;22;1354;-96
2021/12/02 13:54:51;;;;;;;;;;;;;;;5.36;69.50;98597.03;6278905;22;1271;-96
2021/12/02 13:57:19;;;;;;;;;;;;;;;5.35;69.28;98600.72;6279668;22;1308;-96
2021/12/02 13:59:45;;;;;;;;;;;;;;;5.34;69.44;98607.09;6278340;22;1279;-96
2021/12/02 14:02:12;;;;;;;;;;;;;;;5.33;69.54;98600.97;6253150;22;1266;-96
2021/12/02 14:04:38;;;;;;;;;;;;;;;5.34;69.61;98591.09;6279530;22;1154;-96
2021/12/02 14:07:05;;;;;;;;;;;;;;;5.35;69.68;98606.06;6280917;22;1948;-96
2021/12/02 14:09:31;;;;;;;;;;;;;;;5.35;69.51;98598.84;6280724;22;1253;-96
2021/12/02 14:11:58;;;;;;;;;;;;;;;5.36;69.52;98605.03;6280205;22;1310;-96
2021/12/02 14:14:24;;;;;;;;;;;;;;;5.33;69.35;98595.63;6253205;22;1258;-96
2021/12/02 14:16:51;;;;;;;;;;;;;;;5.34;69.41;98597.25;6279452;22;1158;-96
2021/12/02 14:19:17;;;;;;;;;;;;;;;5.32;69.61;98593.97;6278870;22;1206;-96
2021/12/02 14:21:44;;;;;;;;;;;;;;;5.32;69.45;98596.66;6252317;22;1180;-96
2021/12/02 14:24:11;;;;;;;;;;;;;;;5.35;69.59;98611.41;6278867;22;1303;-96
2021/12/02 14:26:37;;;;;;;;;;;;;;;5.34;69.43;98607.09;6277820;22;1904;-96
2021/12/02 14:29:04;;;;;;;;;;;;;;;5.34;69.57;98604.44;6254950;22;1152;-96
2021/12/02 14:31:30;;;;;;;;;;;;;;;5.31;69.70;98603.03;6280902;22;1222;-96
2021/12/02 14:33:57;;;;;;;;;;;;;;;5.29;69.75;98609.66;6278014;22;1342;-96
2021/12/02 14:36:24;;;;;;;;;;;;;;;5.32;69.44;98609.19;6277429;22;1134;-96
2021/12/02 14:38:50;;;;;;;;;;;;;;;5.33;69.52;98616.97;6278681;22;1309;-96
2021/12/02 14:41:17;;;;;;;;;;;;;;;5.33;69.60;98611.66;6252875;22;1352;-96
2021/12/02 14:43:44;;;;;;;;;;;;;;;5.31;69.43;98611.06;6277939;22;1229;-96
2021/12/02 14:46:10;;;;;;;;;;;;;;;5.31;69.46;98618.25;6276087;22;1150;-96
2021/12/02 14:48:37;;;;;;;;;;;;;;;5.30;69.50;98622.78;6278747;22;1950;-96
2021/12/02 14:51:03;;;;;;;;;;;;;;;5.33;69.45;98624.19;6278051;22;1285;-96
2021/12/02 14:53:30;;;;;;;;;;;;;;;5.32;69.43;98615.34;6278177;22;1316;-96